createdAt,value
2018-06-27T00:04:24.995Z,1.70
2018-06-27T00:06:54.085Z,1.60
2018-06-27T00:09:22.756Z,1.63
2018-06-27T00:11:52.613Z,1.80
2018-06-27T00:14:21.800Z,1.53
2018-06-27T00:17:14.241Z,1.83
2018-06-27T00:19:55.665Z,1.83
2018-06-27T00:22:38.475Z,1.90
2018-06-27T00:25:41.374Z,1.80
2018-06-27T00:28:10.552Z,1.83
2018-06-27T00:30:39.608Z,1.80
2018-06-27T00:33:09.155Z,1.97
2018-06-27T00:35:38.129Z,2.00
2018-06-27T00:38:10.740Z,1.87
2018-06-27T00:40:39.992Z,1.77
2018-06-27T00:43:09.168Z,1.87
2018-06-27T00:45:38.000Z,2.00
2018-06-27T00:48:07.700Z,1.80
2018-06-27T00:50:36.788Z,1.77
2018-06-27T00:53:06.244Z,2.00
2018-06-27T00:55:36.832Z,2.13
2018-06-27T00:58:05.620Z,1.67
2018-06-27T01:00:34.652Z,2.13
2018-06-27T01:03:03.218Z,1.90
2018-06-27T01:05:32.522Z,1.77
2018-06-27T01:08:01.225Z,2.00
2018-06-27T01:10:29.689Z,1.97
2018-06-27T01:12:58.777Z,1.80
2018-06-27T01:15:27.672Z,2.03
2018-06-27T01:17:57.796Z,1.80
2018-06-27T01:20:27.280Z,2.20
2018-06-27T01:22:56.004Z,2.30
2018-06-27T01:25:25.057Z,1.77
2018-06-27T01:27:53.796Z,2.03
2018-06-27T01:30:22.880Z,2.20
2018-06-27T01:32:51.743Z,2.00
2018-06-27T01:35:20.363Z,2.23
2018-06-27T01:37:49.187Z,2.00
2018-06-27T01:40:18.126Z,2.07
2018-06-27T01:42:47.532Z,1.90
2018-06-27T01:45:16.227Z,2.33
2018-06-27T01:47:44.811Z,2.30
2018-06-27T01:50:14.075Z,2.50
2018-06-27T01:52:42.995Z,2.43
2018-06-27T01:55:11.403Z,2.20
2018-06-27T01:57:41.928Z,2.23
2018-06-27T02:00:10.788Z,2.10
2018-06-27T02:02:39.996Z,2.17
2018-06-27T02:05:09.224Z,2.13
2018-06-27T02:07:38.534Z,2.20
2018-06-27T02:10:07.663Z,2.07
2018-06-27T02:12:36.964Z,2.07
2018-06-27T02:15:06.272Z,2.13
2018-06-27T02:17:35.704Z,2.10
2018-06-27T02:20:04.767Z,2.17
2018-06-27T02:22:34.087Z,2.00
2018-06-27T02:25:03.128Z,1.90
2018-06-27T02:27:31.861Z,1.90
2018-06-27T02:30:00.878Z,2.00
2018-06-27T02:32:30.608Z,2.40
2018-06-27T02:34:59.529Z,2.27
2018-06-27T02:37:28.219Z,2.43
2018-06-27T02:39:57.312Z,2.30
2018-06-27T02:42:28.004Z,2.10
2018-06-27T02:44:56.815Z,2.20
2018-06-27T02:47:26.303Z,2.00
2018-06-27T02:49:55.851Z,2.73
2018-06-27T02:52:24.743Z,2.23
2018-06-27T02:54:53.944Z,2.10
2018-06-27T02:57:23.188Z,2.17
2018-06-27T02:59:52.152Z,2.23
2018-06-27T03:02:22.028Z,2.40
2018-06-27T03:04:50.948Z,2.17
2018-06-27T03:07:20.508Z,2.33
2018-06-27T03:09:48.888Z,2.60
2018-06-27T03:12:17.610Z,2.03
2018-06-27T03:14:46.759Z,2.20
2018-06-27T03:17:15.716Z,2.53
2018-06-27T03:19:45.038Z,2.20
2018-06-27T03:22:14.004Z,2.20
2018-06-27T03:24:43.255Z,2.20
2018-06-27T03:27:12.160Z,2.23
2018-06-27T03:29:41.099Z,2.20
2018-06-27T03:32:10.269Z,2.37
2018-06-27T03:34:38.497Z,2.57
2018-06-27T03:37:07.560Z,1.93
2018-06-27T03:39:36.320Z,2.10
2018-06-27T03:42:04.720Z,2.50
2018-06-27T03:44:34.588Z,2.30
2018-06-27T03:47:03.453Z,2.60
2018-06-27T03:49:32.192Z,2.33
2018-06-27T03:52:01.468Z,2.17
2018-06-27T03:54:30.347Z,2.20
2018-06-27T03:56:58.999Z,2.20
2018-06-27T03:59:27.620Z,2.53
2018-06-27T04:01:56.799Z,2.40
2018-06-27T04:04:26.292Z,2.30
2018-06-27T04:06:55.240Z,2.40
2018-06-27T04:09:24.067Z,2.40
2018-06-27T04:11:53.272Z,2.30
2018-06-27T04:14:22.267Z,2.43
2018-06-27T04:16:51.145Z,2.00
2018-06-27T04:19:20.034Z,2.20
2018-06-27T04:21:49.172Z,2.23
2018-06-27T04:24:18.152Z,2.50
2018-06-27T04:26:47.124Z,2.33
2018-06-27T04:29:16.377Z,2.03
2018-06-27T04:31:45.324Z,2.30
2018-06-27T04:34:14.324Z,2.13
2018-06-27T04:36:43.740Z,2.10
2018-06-27T04:39:13.139Z,2.40
2018-06-27T04:41:42.511Z,2.07
2018-06-27T04:44:11.603Z,2.17
2018-06-27T04:46:40.900Z,1.87
2018-06-27T04:49:10.120Z,2.10
2018-06-27T04:51:39.448Z,2.30
2018-06-27T04:54:08.680Z,2.10
2018-06-27T04:56:37.700Z,2.17
2018-06-27T04:59:06.899Z,2.00
2018-06-27T05:01:36.456Z,2.10
2018-06-27T05:04:05.609Z,2.33
2018-06-27T05:06:34.676Z,1.93
2018-06-27T05:09:04.372Z,2.40
2018-06-27T05:11:33.837Z,2.07
2018-06-27T05:14:02.708Z,2.17
2018-06-27T05:16:31.614Z,2.10
2018-06-27T05:19:00.579Z,1.93
2018-06-27T05:21:29.590Z,2.10
2018-06-27T05:23:58.703Z,1.77
2018-06-27T05:26:27.784Z,2.20
2018-06-27T05:28:57.184Z,2.00
2018-06-27T05:31:26.608Z,1.70
2018-06-27T05:33:55.584Z,1.83
2018-06-27T05:36:24.690Z,1.63
2018-06-27T05:38:53.932Z,1.60
2018-06-27T05:41:23.203Z,1.80
2018-06-27T05:43:52.231Z,1.80
2018-06-27T05:46:21.468Z,1.77
2018-06-27T05:48:50.094Z,1.77
2018-06-27T05:51:19.383Z,1.67
2018-06-27T05:53:48.792Z,1.50
2018-06-27T05:56:17.740Z,1.57
2018-06-27T05:58:46.400Z,1.47
2018-06-27T06:01:15.343Z,1.90
2018-06-27T06:03:44.779Z,1.53
2018-06-27T06:06:13.603Z,1.77
2018-06-27T06:08:42.625Z,1.53
2018-06-27T06:11:12.012Z,1.50
2018-06-27T06:13:41.482Z,1.70
2018-06-27T06:16:10.201Z,1.90
2018-06-27T06:18:39.531Z,2.13
2018-06-27T06:21:08.892Z,1.60
2018-06-27T06:23:37.807Z,1.53
2018-06-27T06:26:06.663Z,1.30
2018-06-27T06:28:35.428Z,1.50
2018-06-27T06:31:04.495Z,1.43
2018-06-27T06:33:33.744Z,1.53
2018-06-27T06:36:03.284Z,1.57
2018-06-27T06:38:32.703Z,1.87
2018-06-27T06:41:01.800Z,1.40
2018-06-27T06:43:31.100Z,1.50
2018-06-27T06:46:00.360Z,1.43
2018-06-27T06:48:30.792Z,1.40
2018-06-27T06:51:00.647Z,1.20
2018-06-27T06:53:29.769Z,1.20
2018-06-27T06:55:59.160Z,1.17
2018-06-27T06:58:28.459Z,1.10
2018-06-27T07:00:58.299Z,1.13
2018-06-27T07:03:28.036Z,1.10
2018-06-27T07:05:56.920Z,1.37
2018-06-27T07:08:25.966Z,1.17
2018-06-27T07:10:55.055Z,1.13
2018-06-27T07:13:23.940Z,1.10
2018-06-27T07:15:53.284Z,1.00
2018-06-27T07:18:22.531Z,1.30
2018-06-27T07:20:51.453Z,1.40
2018-06-27T07:23:20.681Z,1.00
2018-06-27T07:25:49.828Z,1.10
2018-06-27T07:28:18.637Z,1.30
2018-06-27T07:30:47.813Z,1.33
2018-06-27T07:33:16.656Z,1.20
2018-06-27T07:35:45.933Z,1.00
2018-06-27T07:38:14.995Z,1.33
2018-06-27T07:40:43.996Z,1.13
2018-06-27T07:43:13.099Z,1.20
2018-06-27T07:45:42.299Z,1.20
2018-06-27T07:48:11.585Z,1.23
2018-06-27T07:50:40.480Z,1.17
2018-06-27T07:53:09.664Z,1.20
2018-06-27T07:55:38.982Z,1.20
2018-06-27T07:58:08.292Z,1.40
2018-06-27T08:00:37.574Z,1.37
2018-06-27T08:03:06.996Z,1.00
2018-06-27T08:05:35.848Z,1.10
2018-06-27T08:08:05.304Z,1.23
2018-06-27T08:10:34.192Z,1.37
2018-06-27T08:13:02.984Z,1.10
2018-06-27T08:15:31.869Z,1.10
2018-06-27T08:18:00.912Z,1.30
2018-06-27T08:20:29.990Z,0.90
2018-06-27T08:22:58.700Z,1.20
2018-06-27T08:25:27.686Z,1.03
2018-06-27T08:27:56.668Z,1.13
2018-06-27T08:30:25.347Z,1.20
2018-06-27T08:32:54.393Z,1.20
2018-06-27T08:35:23.760Z,1.13
2018-06-27T08:37:52.401Z,1.10
2018-06-27T08:40:21.751Z,1.20
2018-06-27T08:42:50.882Z,1.20
2018-06-27T08:45:20.260Z,1.20
2018-06-27T08:47:49.456Z,1.37
2018-06-27T08:50:19.729Z,1.17
2018-06-27T08:52:49.947Z,1.20
2018-06-27T08:55:19.260Z,1.30
2018-06-27T08:57:48.235Z,1.35
2018-06-27T09:00:17.624Z,1.22
2018-06-27T09:02:46.733Z,1.10
2018-06-27T09:05:15.744Z,1.37
2018-06-27T09:07:44.716Z,1.25
2018-06-27T09:10:13.672Z,1.30
2018-06-27T09:12:42.824Z,1.17
2018-06-27T09:15:11.760Z,1.20
2018-06-27T09:17:41.201Z,1.30
2018-06-27T09:20:09.940Z,1.20
2018-06-27T09:22:39.313Z,1.20
2018-06-27T09:25:09.196Z,1.12
2018-06-27T09:27:38.252Z,1.40
2018-06-27T09:30:07.532Z,1.10
2018-06-27T09:32:36.524Z,1.40
2018-06-27T09:35:05.840Z,1.42
2018-06-27T09:37:35.244Z,1.22
2018-06-27T09:40:04.784Z,1.10
2018-06-27T09:42:33.468Z,1.10
2018-06-27T09:45:02.084Z,1.15
2018-06-27T09:47:31.048Z,1.10
2018-06-27T09:50:00.094Z,1.00
2018-06-27T09:52:29.444Z,1.00
2018-06-27T09:54:58.836Z,1.07
2018-06-27T09:57:29.088Z,1.00
2018-06-27T09:59:58.299Z,1.20
2018-06-27T10:02:27.886Z,1.10
2018-06-27T10:04:57.877Z,1.10
2018-06-27T10:07:26.572Z,1.20
2018-06-27T10:09:55.892Z,1.20
2018-06-27T10:12:25.014Z,1.00
2018-06-27T10:14:53.828Z,1.17
2018-06-27T10:17:23.301Z,1.50
2018-06-27T10:19:52.800Z,1.20
2018-06-27T10:22:22.107Z,1.30
2018-06-27T10:24:51.064Z,1.70
2018-06-27T10:27:19.849Z,1.45
2018-06-27T10:29:48.428Z,1.77
2018-06-27T10:32:18.121Z,1.95
2018-06-27T10:34:47.158Z,1.75
2018-06-27T10:37:16.192Z,1.45
2018-06-27T10:39:45.215Z,1.57
2018-06-27T10:42:14.571Z,1.47
2018-06-27T10:44:43.456Z,1.75
2018-06-27T10:47:12.493Z,1.90
2018-06-27T10:49:41.377Z,2.00
2018-06-27T10:52:10.560Z,1.80
2018-06-27T10:54:44.431Z,1.65
2018-06-27T10:57:13.232Z,1.60
2018-06-27T10:59:42.357Z,1.60
2018-06-27T11:02:11.296Z,1.75
2018-06-27T11:04:40.172Z,1.70
2018-06-27T11:07:09.448Z,1.67
2018-06-27T11:09:38.468Z,1.80
2018-06-27T11:12:07.988Z,1.57
2018-06-27T11:14:36.925Z,1.72
2018-06-27T11:17:07.078Z,1.50
2018-06-27T11:19:36.696Z,1.62
2018-06-27T11:22:05.717Z,1.98
2018-06-27T11:24:34.928Z,1.80
2018-06-27T11:27:04.884Z,1.60
2018-06-27T11:29:34.476Z,1.80
2018-06-27T11:32:03.268Z,1.82
2018-06-27T11:34:33.108Z,2.60
2018-06-27T11:37:02.946Z,1.55
2018-06-27T11:39:33.184Z,1.60
2018-06-27T11:42:02.365Z,1.80
2018-06-27T11:44:31.340Z,1.50
2018-06-27T11:47:06.286Z,1.50
2018-06-27T11:49:38.417Z,1.80
2018-06-27T11:52:08.899Z,1.50
2018-06-27T11:54:37.668Z,1.70
2018-06-27T11:57:06.332Z,1.50
2018-06-27T11:59:34.956Z,1.85
2018-06-27T12:02:04.620Z,1.50
2018-06-27T12:04:34.652Z,1.70
2018-06-27T12:07:03.536Z,1.80
2018-06-27T12:09:32.353Z,1.65
2018-06-27T12:12:01.273Z,1.70
2018-06-27T12:14:31.044Z,1.77
2018-06-27T12:17:00.276Z,1.55
2018-06-27T12:19:29.200Z,1.67
2018-06-27T12:21:58.801Z,1.50
2018-06-27T12:24:27.616Z,1.50
2018-06-27T12:26:56.508Z,1.12
2018-06-27T12:29:25.578Z,1.50
2018-06-27T12:31:54.865Z,1.25
2018-06-27T12:34:24.175Z,1.40
2018-06-27T12:36:53.345Z,1.25
2018-06-27T12:39:22.240Z,1.30
2018-06-27T12:41:51.129Z,1.27
2018-06-27T12:44:20.344Z,1.50
2018-06-27T12:46:49.351Z,1.55
2018-06-27T12:49:18.512Z,1.40
2018-06-27T12:51:47.491Z,1.50
2018-06-27T12:54:16.880Z,1.42
2018-06-27T12:56:46.016Z,1.32
2018-06-27T12:59:14.861Z,1.50
2018-06-27T13:01:44.009Z,1.20
2018-06-27T13:04:12.904Z,1.32
2018-06-27T13:06:42.160Z,1.40
2018-06-27T13:09:11.965Z,1.30
2018-06-27T13:11:41.572Z,1.62
2018-06-27T13:14:10.896Z,1.67
2018-06-27T13:16:39.993Z,1.50
2018-06-27T13:19:08.356Z,1.30
2018-06-27T13:21:37.552Z,1.47
2018-06-27T13:24:06.677Z,1.50
2018-06-27T13:26:35.922Z,1.60
2018-06-27T13:29:05.001Z,1.37
2018-06-27T13:31:34.089Z,1.50
2018-06-27T13:34:02.960Z,1.10
2018-06-27T13:36:32.128Z,1.22
2018-06-27T13:39:01.192Z,1.32
2018-06-27T13:41:30.276Z,1.40
2018-06-27T13:43:59.865Z,1.60
2018-06-27T13:46:29.106Z,1.60
2018-06-27T13:48:58.067Z,1.80
2018-06-27T13:51:27.164Z,1.40
2018-06-27T13:53:55.912Z,1.60
2018-06-27T13:56:24.937Z,1.60
2018-06-27T13:58:53.827Z,1.40
2018-06-27T14:01:22.865Z,1.40
2018-06-27T14:03:52.078Z,1.70
2018-06-27T14:06:20.790Z,1.50
2018-06-27T14:08:49.732Z,1.40
2018-06-27T14:11:19.012Z,1.52
2018-06-27T14:13:48.364Z,1.77
2018-06-27T14:16:18.532Z,1.50
2018-06-27T14:18:47.501Z,1.50
2018-06-27T14:21:16.411Z,1.45
2018-06-27T14:23:45.736Z,1.30
2018-06-27T14:26:15.624Z,1.35
2018-06-27T14:28:44.630Z,1.70
2018-06-27T14:31:13.623Z,1.50
2018-06-27T14:33:42.717Z,1.50
2018-06-27T14:36:11.801Z,1.82
2018-06-27T14:38:41.048Z,1.90
2018-06-27T14:41:10.205Z,1.85
2018-06-27T14:43:39.404Z,2.20
2018-06-27T14:46:08.593Z,2.20
2018-06-27T14:48:37.820Z,1.65
2018-06-27T14:51:07.908Z,1.52
2018-06-27T14:53:39.896Z,2.35
2018-06-27T14:56:09.379Z,1.95
2018-06-27T14:58:38.660Z,2.33
2018-06-27T15:01:09.024Z,2.30
2018-06-27T15:03:38.537Z,2.10
2018-06-27T15:06:07.932Z,1.80
2018-06-27T15:08:36.958Z,2.00
2018-06-27T15:11:06.384Z,2.10
2018-06-27T15:13:36.328Z,2.12
2018-06-27T15:16:05.561Z,1.75
2018-06-27T15:18:35.034Z,1.60
2018-06-27T15:21:04.064Z,1.50
2018-06-27T15:23:32.865Z,1.60
2018-06-27T15:26:01.760Z,1.70
2018-06-27T15:28:30.729Z,1.50
2018-06-27T15:30:59.767Z,1.40
2018-06-27T15:33:28.609Z,1.62
2018-06-27T15:35:57.236Z,1.50
2018-06-27T15:38:26.436Z,1.57
2018-06-27T15:40:55.700Z,1.50
2018-06-27T15:43:24.636Z,1.60
2018-06-27T15:45:53.628Z,1.55
2018-06-27T15:48:23.457Z,1.40
2018-06-27T15:50:52.247Z,1.60
2018-06-27T15:53:21.259Z,1.50
2018-06-27T15:55:50.308Z,1.55
2018-06-27T15:58:19.645Z,1.60
2018-06-27T16:00:48.709Z,1.50
2018-06-27T16:03:18.013Z,1.60
2018-06-27T16:05:47.070Z,1.30
2018-06-27T16:08:16.014Z,1.47
2018-06-27T16:10:44.722Z,1.60
2018-06-27T16:13:13.828Z,1.40
2018-06-27T16:15:42.836Z,1.70
2018-06-27T16:18:12.285Z,1.30
2018-06-27T16:20:41.896Z,1.50
2018-06-27T16:23:10.634Z,1.60
2018-06-27T16:25:39.372Z,1.50
2018-06-27T16:28:08.940Z,1.42
2018-06-27T16:30:37.736Z,1.50
2018-06-27T16:33:07.068Z,1.60
2018-06-27T16:35:36.416Z,1.80
2018-06-27T16:38:06.240Z,1.85
2018-06-27T16:40:35.864Z,1.47
2018-06-27T16:43:05.143Z,1.75
2018-06-27T16:45:34.297Z,1.50
2018-06-27T16:48:03.104Z,1.47
2018-06-27T16:50:32.217Z,1.65
2018-06-27T16:53:01.680Z,1.70
2018-06-27T16:55:31.237Z,2.20
2018-06-27T16:58:00.405Z,1.50
2018-06-27T17:00:29.280Z,1.62
2018-06-27T17:02:58.182Z,1.52
2018-06-27T17:05:27.096Z,1.42
2018-06-27T17:07:56.264Z,1.40
2018-06-27T17:10:24.912Z,1.50
2018-06-27T17:12:53.993Z,1.80
2018-06-27T17:15:24.113Z,1.50
2018-06-27T17:17:52.420Z,1.45
2018-06-27T17:20:21.228Z,1.60
2018-06-27T17:22:49.803Z,1.50
2018-06-27T17:25:19.105Z,1.80
2018-06-27T17:27:48.169Z,1.40
2018-06-27T17:30:17.160Z,1.67
2018-06-27T17:32:46.412Z,1.60
2018-06-27T17:35:15.412Z,1.40
2018-06-27T17:37:44.558Z,1.55
2018-06-27T17:40:13.795Z,1.50
2018-06-27T17:42:42.669Z,1.60
2018-06-27T17:45:11.956Z,1.60
2018-06-27T17:47:40.697Z,1.47
2018-06-27T17:50:09.765Z,1.55
2018-06-27T17:52:39.055Z,1.52
2018-06-27T17:55:07.867Z,1.65
2018-06-27T17:57:36.671Z,1.50
2018-06-27T18:00:05.702Z,1.52
2018-06-27T18:02:35.208Z,1.70
2018-06-27T18:05:04.512Z,1.52
2018-06-27T18:07:33.249Z,1.50
2018-06-27T18:10:02.450Z,1.65
2018-06-27T18:12:31.927Z,1.80
2018-06-27T18:15:01.249Z,1.70
2018-06-27T18:17:30.260Z,1.57
2018-06-27T18:19:58.976Z,1.45
2018-06-27T18:22:28.144Z,1.40
2018-06-27T18:24:56.752Z,1.42
2018-06-27T18:27:25.873Z,1.27
2018-06-27T18:29:55.236Z,1.82
2018-06-27T18:32:23.829Z,1.30
2018-06-27T18:34:52.875Z,1.50
2018-06-27T18:37:22.332Z,1.22
2018-06-27T18:39:51.500Z,1.50
2018-06-27T18:42:20.568Z,1.52
2018-06-27T18:44:49.758Z,1.60
2018-06-27T18:47:19.037Z,1.30
2018-06-27T18:49:48.344Z,1.30
2018-06-27T18:52:17.239Z,1.40
2018-06-27T18:54:46.164Z,1.30
2018-06-27T18:57:15.109Z,1.10
2018-06-27T18:59:44.057Z,1.00
2018-06-27T19:02:13.249Z,1.20
2018-06-27T19:04:42.655Z,1.27
2018-06-27T19:07:12.062Z,1.30
2018-06-27T19:09:41.349Z,1.62
2018-06-27T19:12:10.440Z,1.20
2018-06-27T19:14:39.184Z,1.22
2018-06-27T19:17:07.676Z,1.35
2018-06-27T19:19:40.460Z,1.30
2018-06-27T19:22:10.448Z,1.12
2018-06-27T19:24:39.432Z,1.40
2018-06-27T19:27:08.760Z,1.52
2018-06-27T19:29:38.040Z,1.20
2018-06-27T19:32:06.939Z,1.70
2018-06-27T19:34:35.970Z,1.25
2018-06-27T19:37:05.538Z,1.45
2018-06-27T19:39:37.459Z,1.32
2018-06-27T19:42:04.405Z,1.52
2018-06-27T19:44:33.679Z,1.22
2018-06-27T19:47:02.468Z,1.40
2018-06-27T19:49:31.562Z,1.40
2018-06-27T19:52:00.850Z,1.60
2018-06-27T19:54:29.784Z,1.40
2018-06-27T19:56:59.256Z,1.42
2018-06-27T19:59:28.356Z,1.87
2018-06-27T20:01:57.317Z,1.50
2018-06-27T20:04:26.373Z,1.30
2018-06-27T20:06:55.101Z,1.50
2018-06-27T20:09:25.268Z,1.57
2018-06-27T20:11:54.092Z,1.40
2018-06-27T20:14:23.112Z,1.60
2018-06-27T20:16:52.464Z,1.85
2018-06-27T20:19:21.583Z,1.50
2018-06-27T20:21:50.473Z,1.30
2018-06-27T20:24:19.760Z,1.62
2018-06-27T20:26:49.442Z,1.57
2018-06-27T20:29:18.799Z,1.60
2018-06-27T20:31:47.540Z,1.30
2018-06-27T20:34:17.147Z,1.27
2018-06-27T20:36:46.080Z,1.40
2018-06-27T20:39:15.284Z,1.52
2018-06-27T20:41:44.484Z,1.57
2018-06-27T20:44:13.531Z,1.60
2018-06-27T20:46:42.960Z,1.30
2018-06-27T20:49:12.496Z,1.70
2018-06-27T20:51:41.456Z,1.70
2018-06-27T20:54:10.292Z,1.25
2018-06-27T20:56:39.424Z,1.70
2018-06-27T20:59:08.693Z,1.47
2018-06-27T21:01:37.700Z,1.27
2018-06-27T21:04:06.948Z,1.50
2018-06-27T21:06:36.026Z,1.57
2018-06-27T21:09:06.772Z,1.67
2018-06-27T21:11:35.647Z,1.50
2018-06-27T21:14:04.848Z,1.57
2018-06-27T21:16:34.128Z,1.70
2018-06-27T21:19:03.133Z,1.70
2018-06-27T21:21:32.228Z,1.60
2018-06-27T21:24:01.966Z,1.73
2018-06-27T21:26:30.868Z,1.53
2018-06-27T21:29:00.163Z,1.80
2018-06-27T21:31:29.328Z,1.73
2018-06-27T21:33:58.046Z,1.50
2018-06-27T21:36:26.792Z,1.67
2018-06-27T21:38:55.946Z,1.60
2018-06-27T21:41:24.850Z,1.93
2018-06-27T21:43:53.784Z,1.90
2018-06-27T21:46:22.852Z,2.03
2018-06-27T21:48:51.704Z,1.60
2018-06-27T21:51:20.922Z,1.70
2018-06-27T21:53:50.048Z,1.80
2018-06-27T21:56:19.440Z,2.10
2018-06-27T21:58:48.245Z,1.97
2018-06-27T22:01:17.594Z,1.80
2018-06-27T22:03:46.792Z,1.50
2018-06-27T22:06:19.648Z,2.40
2018-06-27T22:08:48.610Z,2.00
2018-06-27T22:11:17.827Z,1.83
2018-06-27T22:13:47.316Z,2.10
2018-06-27T22:16:16.240Z,1.80
2018-06-27T22:18:45.182Z,1.90
2018-06-27T22:21:14.317Z,2.00
2018-06-27T22:23:44.336Z,1.80
2018-06-27T22:26:13.213Z,1.70
2018-06-27T22:28:42.399Z,1.87
2018-06-27T22:31:13.080Z,1.73
2018-06-27T22:33:42.076Z,1.97
2018-06-27T22:36:11.060Z,1.97
2018-06-27T22:38:39.564Z,1.50
2018-06-27T22:41:09.320Z,2.20
2018-06-27T22:43:38.684Z,1.97
2018-06-27T22:46:07.556Z,2.60
2018-06-27T22:48:36.796Z,2.20
2018-06-27T22:51:05.779Z,2.00
2018-06-27T22:53:35.056Z,2.00
2018-06-27T22:56:03.844Z,1.60
2018-06-27T22:58:32.604Z,2.07
2018-06-27T23:01:01.812Z,2.07
2018-06-27T23:03:31.138Z,1.87
2018-06-27T23:06:00.690Z,1.83
2018-06-27T23:08:29.936Z,1.97
2018-06-27T23:10:58.937Z,1.80
2018-06-27T23:13:28.074Z,1.60
2018-06-27T23:15:56.864Z,1.90
2018-06-27T23:18:25.801Z,1.90
2018-06-27T23:20:54.461Z,1.70
2018-06-27T23:23:23.324Z,1.80
2018-06-27T23:25:53.296Z,1.70
2018-06-27T23:28:21.956Z,1.63
2018-06-27T23:30:50.393Z,1.63
2018-06-27T23:33:19.444Z,1.70
2018-06-27T23:35:48.352Z,1.50
2018-06-27T23:38:17.550Z,1.90
2018-06-27T23:40:45.940Z,1.70
2018-06-27T23:43:15.021Z,1.50
2018-06-27T23:45:43.700Z,2.87
2018-06-27T23:48:12.980Z,2.47
2018-06-27T23:50:42.876Z,1.43
2018-06-27T23:53:11.788Z,1.80
2018-06-27T23:55:40.512Z,1.93
2018-06-27T23:58:09.452Z,1.90
